X  Close Metar Aviation Weather Data     ESNL Lycksele Airport
Temperature
-15°C Temperature
-16°C Dewpoint
92% Humidity



Wind
0 M/S
0 MPH
0 KM/H
0 KTS



Calm
North
Current Conditions

Clear Clear
Pressure 1026.92 (hPa) - 30.32 (inHg)
Visibility 6.2 (mile) - 10 (km)
Airport
Airport-code ESNL

Location: Lycksele Airport
Distance: 35 (km)

Metar:
ESNL 280920Z AUTO 00000KT 9999 NCD M15/M16 Q1027

Time: 2020-11-28 10:20 CET